Miranda, California
Current Conditions -  °F | °C
As of 5:50 AM on Friday 24 Oct 2014 (Local Time) from KFOT Reporting Station
Overcast Overcast  
Wind Chill: 55°   Ceiling: 2800
Heat Index: 55°   Visibility: 8mi
Dew Point: 55°   Wind: 7mph
Humidity: 100%   Direction: 110°ESE
Pressure: 29.9"   Gusts: NA
Location:  40.23°N, 123.83°W
Report Text: KFOT 241250Z AUTO 11006KT 8SM BKN028 BKN034 OVC041 13/13 A2990 RMK AO1 P0001
Loading
Personal Weather Stations






























Interactive Weather Map
Tropical Storm Tracking
New forecast layout! Learn more

10-Day Weather Forecast

Advertisements
Track Severe Weather on mobile